Blacksburg, VA (24060)

6:22 AM EDT on September 04, 2015 (GMT -0400)
APRSWXNET | | Change Station
CLOSE
Current Station
Personal Weather Station
Location: Blacksburg, VA
Elevation: 2086 ft
Nearby Weather Stations

Elev 2086 ft 37.24 °N, 80.42 °W | Updated 34 minutes ago

Mist
Mist
64 °F
Feels Like 64 °F
N
0
Wind Variable Wind from NNE
Gusts 0.0 mph

Today
High -- | Low -- °F
--% Chance of Precip.
Yesterday
High -- | Low -- °F
Precip. -- in
6:54 AM 7:46 PM
Waning Gibbous, 61% visible
Pressure 30.10 in
Visibility 1.5 miles
Clouds
Dew Point 63 °F
Humidity 96%
Rainfall in
Snow Depth Not available.
UV Not available.
Pollen 9.90 out of 12
Air Quality Not available.
Flu Activity Not available.
METAR KBCB 041015Z AUTO 00000KT 1 1/2SM BR VV007 17/17 A3010 RMK AO2 T01710171
Pressure 30.10 in
Visibility 1.5 miles
Clouds
Dew Point 63 °F
Humidity 96%
Rainfall in
Snow Depth Not available.
UV Not available.
Pollen 9.90 out of 12
Air Quality Not available.
Flu Activity Not available.
METAR KBCB 041015Z AUTO 00000KT 1 1/2SM BR VV007 17/17 A3010 RMK AO2 T01710171

10-Day Weather Forecast

×

Almanac

Astronomy

Sep. 04, 2015 Rise Set
Actual Time
Civil Twilight
Nautical Twilight
Astronomical Twilight
Moon
Length of Visible Light
Length of Day
Tomorrow will be .
, % of the Moon is Illuminated

Today's Extremes

State Highs State Lows

Community

WunderPhotos

Upload Photos

1,852,146 photos uploaded!

WunderBlogs® & News

Nearby

Air Quality

  Air Quality AQ Index Pollutant
Not available.

Snow Depth

Station Depth Elevation

Earthquake Activity

City Distance Mag. Time & Date
Minimum magnitude displayed is 2.5.

Coastal Water Temperatures

Place Temperature

Stations

Nearby Weather Stations

Station Location Temp. Windchill Dew Point Humidity Wind Precip. Elev Updated Type